sensor_id;sensor_type;location;lat;lon;timestamp;temperature;humidity
13093;DHT22;6612;49.568;11.000;2023-04-25T00:01:03;13.20;51.40
13093;DHT22;6612;49.568;11.000;2023-04-25T00:03:30;13.20;51.40
13093;DHT22;6612;49.568;11.000;2023-04-25T00:05:57;13.20;51.40
13093;DHT22;6612;49.568;11.000;2023-04-25T00:08:29;13.20;51.50
13093;DHT22;6612;49.568;11.000;2023-04-25T00:10:56;13.20;51.70
13093;DHT22;6612;49.568;11.000;2023-04-25T00:13:23;13.20;51.60
13093;DHT22;6612;49.568;11.000;2023-04-25T00:15:51;13.20;51.60
13093;DHT22;6612;49.568;11.000;2023-04-25T00:18:18;13.20;51.60
13093;DHT22;6612;49.568;11.000;2023-04-25T00:20:45;13.20;51.60
13093;DHT22;6612;49.568;11.000;2023-04-25T00:23:13;13.20;51.60
13093;DHT22;6612;49.568;11.000;2023-04-25T00:25:44;13.20;51.60
13093;DHT22;6612;49.568;11.000;2023-04-25T00:28:12;13.20;51.60
13093;DHT22;6612;49.568;11.000;2023-04-25T00:30:39;13.20;51.60
13093;DHT22;6612;49.568;11.000;2023-04-25T00:33:07;13.20;51.70
13093;DHT22;6612;49.568;11.000;2023-04-25T00:35:34;13.30;51.80
13093;DHT22;6612;49.568;11.000;2023-04-25T00:38:01;13.20;51.80
13093;DHT22;6612;49.568;11.000;2023-04-25T00:40:28;13.30;51.90
13093;DHT22;6612;49.568;11.000;2023-04-25T00:42:57;13.30;51.90
13093;DHT22;6612;49.568;11.000;2023-04-25T00:45:27;13.30;52.00
13093;DHT22;6612;49.568;11.000;2023-04-25T00:47:55;13.30;52.10
13093;DHT22;6612;49.568;11.000;2023-04-25T00:50:22;13.20;51.90
13093;DHT22;6612;49.568;11.000;2023-04-25T00:52:49;13.20;51.90
13093;DHT22;6612;49.568;11.000;2023-04-25T00:55:16;13.20;51.90
13093;DHT22;6612;49.568;11.000;2023-04-25T00:57:43;13.20;51.90
13093;DHT22;6612;49.568;11.000;2023-04-25T01:00:12;13.20;52.00
13093;DHT22;6612;49.568;11.000;2023-04-25T01:02:40;13.20;52.10
13093;DHT22;6612;49.568;11.000;2023-04-25T01:05:08;13.20;52.10
13093;DHT22;6612;49.568;11.000;2023-04-25T01:07:35;13.20;52.00
13093;DHT22;6612;49.568;11.000;2023-04-25T01:10:03;13.20;52.00
13093;DHT22;6612;49.568;11.000;2023-04-25T01:12:31;13.20;52.00
13093;DHT22;6612;49.568;11.000;2023-04-25T01:14:58;13.20;52.10
13093;DHT22;6612;49.568;11.000;2023-04-25T01:17:27;13.20;52.10
13093;DHT22;6612;49.568;11.000;2023-04-25T01:19:54;13.20;52.10
13093;DHT22;6612;49.568;11.000;2023-04-25T01:22:23;13.20;52.10
13093;DHT22;6612;49.568;11.000;2023-04-25T01:24:50;13.20;52.20
13093;DHT22;6612;49.568;11.000;2023-04-25T01:27:18;13.20;52.20
13093;DHT22;6612;49.568;11.000;2023-04-25T01:29:46;13.20;52.20
13093;DHT22;6612;49.568;11.000;2023-04-25T01:32:13;13.20;52.20
13093;DHT22;6612;49.568;11.000;2023-04-25T01:34:41;13.20;52.20
13093;DHT22;6612;49.568;11.000;2023-04-25T01:37:08;13.20;52.10
13093;DHT22;6612;49.568;11.000;2023-04-25T01:39:36;13.20;52.20
13093;DHT22;6612;49.568;11.000;2023-04-25T01:42:03;13.20;51.60
13093;DHT22;6612;49.568;11.000;2023-04-25T01:44:30;13.20;52.10
13093;DHT22;6612;49.568;11.000;2023-04-25T01:46:58;13.20;52.20
13093;DHT22;6612;49.568;11.000;2023-04-25T01:49:25;13.20;52.10
13093;DHT22;6612;49.568;11.000;2023-04-25T01:51:52;13.10;51.80
13093;DHT22;6612;49.568;11.000;2023-04-25T01:54:19;13.20;52.30
13093;DHT22;6612;49.568;11.000;2023-04-25T01:56:51;13.20;52.30
13093;DHT22;6612;49.568;11.000;2023-04-25T01:59:18;13.20;52.50
13093;DHT22;6612;49.568;11.000;2023-04-25T02:01:47;13.20;52.30
13093;DHT22;6612;49.568;11.000;2023-04-25T02:04:14;13.20;52.30
13093;DHT22;6612;49.568;11.000;2023-04-25T02:06:41;13.20;52.50
13093;DHT22;6612;49.568;11.000;2023-04-25T02:09:08;13.20;52.40
13093;DHT22;6612;49.568;11.000;2023-04-25T02:11:35;13.20;52.40
13093;DHT22;6612;49.568;11.000;2023-04-25T02:14:03;13.20;52.40
13093;DHT22;6612;49.568;11.000;2023-04-25T02:16:30;13.20;52.50
13093;DHT22;6612;49.568;11.000;2023-04-25T02:18:57;13.20;52.30
13093;DHT22;6612;49.568;11.000;2023-04-25T02:21:24;13.20;52.30
13093;DHT22;6612;49.568;11.000;2023-04-25T02:23:52;13.20;52.30
13093;DHT22;6612;49.568;11.000;2023-04-25T02:26:19;13.20;52.20
13093;DHT22;6612;49.568;11.000;2023-04-25T02:28:46;13.20;52.20
13093;DHT22;6612;49.568;11.000;2023-04-25T02:31:15;13.20;52.10
13093;DHT22;6612;49.568;11.000;2023-04-25T02:33:42;13.20;52.20
13093;DHT22;6612;49.568;11.000;2023-04-25T02:36:09;13.20;52.20
13093;DHT22;6612;49.568;11.000;2023-04-25T02:38:36;13.20;52.20
13093;DHT22;6612;49.568;11.000;2023-04-25T02:41:03;13.10;52.20
13093;DHT22;6612;49.568;11.000;2023-04-25T02:43:30;13.10;52.10
13093;DHT22;6612;49.568;11.000;2023-04-25T02:45:57;13.10;52.10
13093;DHT22;6612;49.568;11.000;2023-04-25T02:48:26;13.10;52.20
13093;DHT22;6612;49.568;11.000;2023-04-25T02:50:54;13.10;52.30
13093;DHT22;6612;49.568;11.000;2023-04-25T02:53:21;13.10;52.20
13093;DHT22;6612;49.568;11.000;2023-04-25T02:55:48;13.00;52.80
13093;DHT22;6612;49.568;11.000;2023-04-25T02:58:14;13.00;52.30
13093;DHT22;6612;49.568;11.000;2023-04-25T03:00:42;13.00;52.30
13093;DHT22;6612;49.568;11.000;2023-04-25T03:03:09;13.00;52.30
13093;DHT22;6612;49.568;11.000;2023-04-25T03:05:37;13.00;52.30
13093;DHT22;6612;49.568;11.000;2023-04-25T03:08:04;13.00;52.30
13093;DHT22;6612;49.568;11.000;2023-04-25T03:10:31;12.90;52.10
13093;DHT22;6612;49.568;11.000;2023-04-25T03:12:58;12.90;52.10
13093;DHT22;6612;49.568;11.000;2023-04-25T03:15:25;12.90;52.20
13093;DHT22;6612;49.568;11.000;2023-04-25T03:17:52;12.90;52.80
13093;DHT22;6612;49.568;11.000;2023-04-25T03:20:19;12.90;52.20
13093;DHT22;6612;49.568;11.000;2023-04-25T03:22:48;12.90;52.30
13093;DHT22;6612;49.568;11.000;2023-04-25T03:25:16;12.80;52.30
13093;DHT22;6612;49.568;11.000;2023-04-25T03:27:43;12.90;52.40
13093;DHT22;6612;49.568;11.000;2023-04-25T03:30:10;12.80;52.30
13093;DHT22;6612;49.568;11.000;2023-04-25T03:32:37;12.80;52.30
13093;DHT22;6612;49.568;11.000;2023-04-25T03:35:05;12.80;52.30
13093;DHT22;6612;49.568;11.000;2023-04-25T03:37:32;12.80;52.30
13093;DHT22;6612;49.568;11.000;2023-04-25T03:40:00;12.80;52.40
13093;DHT22;6612;49.568;11.000;2023-04-25T03:42:28;12.70;52.50
13093;DHT22;6612;49.568;11.000;2023-04-25T03:44:55;12.70;52.50
13093;DHT22;6612;49.568;11.000;2023-04-25T03:47:22;12.70;52.60
13093;DHT22;6612;49.568;11.000;2023-04-25T03:49:49;12.70;52.70
13093;DHT22;6612;49.568;11.000;2023-04-25T03:52:17;12.70;52.70
13093;DHT22;6612;49.568;11.000;2023-04-25T03:54:44;12.70;52.80
13093;DHT22;6612;49.568;11.000;2023-04-25T03:57:13;12.70;52.90
13093;DHT22;6612;49.568;11.000;2023-04-25T03:59:40;12.70;53.00
13093;DHT22;6612;49.568;11.000;2023-04-25T04:02:07;12.80;52.70
13093;DHT22;6612;49.568;11.000;2023-04-25T04:04:34;12.70;53.00
13093;DHT22;6612;49.568;11.000;2023-04-25T04:07:01;12.80;53.70
13093;DHT22;6612;49.568;11.000;2023-04-25T04:09:28;12.80;53.10
13093;DHT22;6612;49.568;11.000;2023-04-25T04:11:55;12.80;52.60
13093;DHT22;6612;49.568;11.000;2023-04-25T04:14:23;12.80;53.10
13093;DHT22;6612;49.568;11.000;2023-04-25T04:16:51;12.80;53.10
13093;DHT22;6612;49.568;11.000;2023-04-25T04:19:18;12.80;53.00
13093;DHT22;6612;49.568;11.000;2023-04-25T04:21:46;12.80;53.00
13093;DHT22;6612;49.568;11.000;2023-04-25T04:24:13;12.90;53.10
13093;DHT22;6612;49.568;11.000;2023-04-25T04:26:40;12.90;53.00
13093;DHT22;6612;49.568;11.000;2023-04-25T04:29:10;12.90;53.00
13093;DHT22;6612;49.568;11.000;2023-04-25T04:31:38;12.90;53.10
13093;DHT22;6612;49.568;11.000;2023-04-25T04:34:05;12.90;53.20
13093;DHT22;6612;49.568;11.000;2023-04-25T04:36:32;12.90;53.10
13093;DHT22;6612;49.568;11.000;2023-04-25T04:38:59;12.90;53.20
13093;DHT22;6612;49.568;11.000;2023-04-25T04:41:27;12.90;53.20
13093;DHT22;6612;49.568;11.000;2023-04-25T04:43:54;12.90;53.20
13093;DHT22;6612;49.568;11.000;2023-04-25T04:46:21;12.90;53.20
13093;DHT22;6612;49.568;11.000;2023-04-25T04:48:51;12.90;53.20
13093;DHT22;6612;49.568;11.000;2023-04-25T04:51:19;13.00;53.30
13093;DHT22;6612;49.568;11.000;2023-04-25T04:53:46;13.00;53.30
13093;DHT22;6612;49.568;11.000;2023-04-25T04:56:13;13.00;53.30
13093;DHT22;6612;49.568;11.000;2023-04-25T04:58:40;13.00;53.30
13093;DHT22;6612;49.568;11.000;2023-04-25T05:01:07;13.00;53.40
13093;DHT22;6612;49.568;11.000;2023-04-25T05:03:34;13.00;53.40
13093;DHT22;6612;49.568;11.000;2023-04-25T05:06:03;13.00;53.40
13093;DHT22;6612;49.568;11.000;2023-04-25T05:08:31;13.10;53.40
13093;DHT22;6612;49.568;11.000;2023-04-25T05:10:57;13.10;53.40
13093;DHT22;6612;49.568;11.000;2023-04-25T05:13:24;13.10;53.40
13093;DHT22;6612;49.568;11.000;2023-04-25T05:15:51;13.10;54.00
13093;DHT22;6612;49.568;11.000;2023-04-25T05:18:18;13.10;53.30
13093;DHT22;6612;49.568;11.000;2023-04-25T05:20:45;13.10;53.30
13093;DHT22;6612;49.568;11.000;2023-04-25T05:23:14;13.10;53.30
13093;DHT22;6612;49.568;11.000;2023-04-25T05:25:42;13.10;53.40
13093;DHT22;6612;49.568;11.000;2023-04-25T05:28:08;13.20;53.40
13093;DHT22;6612;49.568;11.000;2023-04-25T05:30:35;13.20;53.40
13093;DHT22;6612;49.568;11.000;2023-04-25T05:33:03;13.20;53.40
13093;DHT22;6612;49.568;11.000;2023-04-25T05:35:30;13.20;53.40
13093;DHT22;6612;49.568;11.000;2023-04-25T05:37:57;13.20;53.40
13093;DHT22;6612;49.568;11.000;2023-04-25T05:40:25;13.30;53.40
13093;DHT22;6612;49.568;11.000;2023-04-25T05:42:52;13.30;53.40
13093;DHT22;6612;49.568;11.000;2023-04-25T05:45:19;13.30;53.30
13093;DHT22;6612;49.568;11.000;2023-04-25T05:47:46;13.40;53.30
13093;DHT22;6612;49.568;11.000;2023-04-25T05:50:13;13.40;53.30
13093;DHT22;6612;49.568;11.000;2023-04-25T05:52:40;13.40;53.30
13093;DHT22;6612;49.568;11.000;2023-04-25T05:55:08;13.40;53.20
13093;DHT22;6612;49.568;11.000;2023-04-25T05:57:36;13.40;53.10
13093;DHT22;6612;49.568;11.000;2023-04-25T06:00:07;13.40;53.20
13093;DHT22;6612;49.568;11.000;2023-04-25T06:02:35;13.40;53.10
13093;DHT22;6612;49.568;11.000;2023-04-25T06:05:02;13.40;53.10
13093;DHT22;6612;49.568;11.000;2023-04-25T06:07:30;13.40;53.10
13093;DHT22;6612;49.568;11.000;2023-04-25T06:09:57;13.40;53.20
13093;DHT22;6612;49.568;11.000;2023-04-25T06:12:25;13.40;53.20
13093;DHT22;6612;49.568;11.000;2023-04-25T06:14:53;13.40;53.20
13093;DHT22;6612;49.568;11.000;2023-04-25T06:17:20;13.40;53.40
13093;DHT22;6612;49.568;11.000;2023-04-25T06:19:47;13.40;53.40
13093;DHT22;6612;49.568;11.000;2023-04-25T06:22:14;13.40;53.40
13093;DHT22;6612;49.568;11.000;2023-04-25T06:24:41;13.40;53.50
13093;DHT22;6612;49.568;11.000;2023-04-25T06:27:08;13.50;53.60
13093;DHT22;6612;49.568;11.000;2023-04-25T06:29:35;13.50;53.70
13093;DHT22;6612;49.568;11.000;2023-04-25T06:32:04;13.60;53.40
13093;DHT22;6612;49.568;11.000;2023-04-25T06:34:31;13.50;54.00
13093;DHT22;6612;49.568;11.000;2023-04-25T06:36:58;13.60;54.10
13093;DHT22;6612;49.568;11.000;2023-04-25T06:39:25;13.60;54.10
13093;DHT22;6612;49.568;11.000;2023-04-25T06:41:52;13.70;53.80
13093;DHT22;6612;49.568;11.000;2023-04-25T06:44:20;13.70;54.40
13093;DHT22;6612;49.568;11.000;2023-04-25T06:46:48;13.80;54.60
13093;DHT22;6612;49.568;11.000;2023-04-25T06:49:17;13.90;54.70
13093;DHT22;6612;49.568;11.000;2023-04-25T06:51:44;14.00;54.80
13093;DHT22;6612;49.568;11.000;2023-04-25T06:54:11;14.10;54.90
13093;DHT22;6612;49.568;11.000;2023-04-25T06:56:38;14.20;54.80
13093;DHT22;6612;49.568;11.000;2023-04-25T06:59:05;14.30;54.40
13093;DHT22;6612;49.568;11.000;2023-04-25T07:01:32;14.40;53.90
13093;DHT22;6612;49.568;11.000;2023-04-25T07:03:58;14.50;53.50
13093;DHT22;6612;49.568;11.000;2023-04-25T07:06:27;14.50;53.10
13093;DHT22;6612;49.568;11.000;2023-04-25T07:08:54;14.50;52.50
13093;DHT22;6612;49.568;11.000;2023-04-25T07:11:21;14.40;52.40
13093;DHT22;6612;49.568;11.000;2023-04-25T07:13:48;14.40;52.50
13093;DHT22;6612;49.568;11.000;2023-04-25T07:16:16;14.40;52.40
13093;DHT22;6612;49.568;11.000;2023-04-25T07:18:43;14.30;52.20
13093;DHT22;6612;49.568;11.000;2023-04-25T07:21:10;14.30;52.00
13093;DHT22;6612;49.568;11.000;2023-04-25T07:23:38;14.20;51.90
13093;DHT22;6612;49.568;11.000;2023-04-25T07:26:06;14.20;52.00
13093;DHT22;6612;49.568;11.000;2023-04-25T07:28:33;14.10;51.80
13093;DHT22;6612;49.568;11.000;2023-04-25T07:31:00;14.10;51.70
13093;DHT22;6612;49.568;11.000;2023-04-25T07:33:28;14.10;51.90
13093;DHT22;6612;49.568;11.000;2023-04-25T07:35:55;14.10;52.10
13093;DHT22;6612;49.568;11.000;2023-04-25T07:38:22;14.10;52.30
13093;DHT22;6612;49.568;11.000;2023-04-25T07:40:51;14.10;52.50
13093;DHT22;6612;49.568;11.000;2023-04-25T07:43:18;14.00;52.70
13093;DHT22;6612;49.568;11.000;2023-04-25T07:45:45;14.10;52.90
13093;DHT22;6612;49.568;11.000;2023-04-25T07:48:16;14.10;53.00
13093;DHT22;6612;49.568;11.000;2023-04-25T07:50:43;14.20;53.00
13093;DHT22;6612;49.568;11.000;2023-04-25T07:53:11;14.20;52.90
13093;DHT22;6612;49.568;11.000;2023-04-25T07:55:38;14.30;52.90
13093;DHT22;6612;49.568;11.000;2023-04-25T07:58:07;14.30;52.90
13093;DHT22;6612;49.568;11.000;2023-04-25T08:00:34;14.30;52.90
13093;DHT22;6612;49.568;11.000;2023-04-25T08:03:01;14.40;53.30
13093;DHT22;6612;49.568;11.000;2023-04-25T08:05:29;14.50;53.70
13093;DHT22;6612;49.568;11.000;2023-04-25T08:07:56;14.70;54.30
13093;DHT22;6612;49.568;11.000;2023-04-25T08:10:23;14.90;54.80
13093;DHT22;6612;49.568;11.000;2023-04-25T08:12:50;15.10;54.90
13093;DHT22;6612;49.568;11.000;2023-04-25T08:15:18;15.40;54.90
13093;DHT22;6612;49.568;11.000;2023-04-25T08:17:46;15.60;54.70
13093;DHT22;6612;49.568;11.000;2023-04-25T08:20:12;15.80;54.90
13093;DHT22;6612;49.568;11.000;2023-04-25T08:22:39;16.10;55.00
13093;DHT22;6612;49.568;11.000;2023-04-25T08:25:07;16.30;54.80
13093;DHT22;6612;49.568;11.000;2023-04-25T08:27:34;16.60;54.70
13093;DHT22;6612;49.568;11.000;2023-04-25T08:30:01;16.80;54.20
13093;DHT22;6612;49.568;11.000;2023-04-25T08:32:30;17.00;53.70
13093;DHT22;6612;49.568;11.000;2023-04-25T08:34:57;17.20;53.30
13093;DHT22;6612;49.568;11.000;2023-04-25T08:37:24;17.40;52.90
13093;DHT22;6612;49.568;11.000;2023-04-25T08:39:51;17.60;52.70
13093;DHT22;6612;49.568;11.000;2023-04-25T08:42:19;17.70;52.90
13093;DHT22;6612;49.568;11.000;2023-04-25T08:44:49;17.80;51.80
13093;DHT22;6612;49.568;11.000;2023-04-25T08:47:18;17.90;51.40
13093;DHT22;6612;49.568;11.000;2023-04-25T08:49:48;17.90;50.80
13093;DHT22;6612;49.568;11.000;2023-04-25T08:52:17;17.90;50.30
13093;DHT22;6612;49.568;11.000;2023-04-25T08:54:48;18.00;50.20
13093;DHT22;6612;49.568;11.000;2023-04-25T08:57:15;18.00;50.20
13093;DHT22;6612;49.568;11.000;2023-04-25T08:59:44;17.90;50.00
13093;DHT22;6612;49.568;11.000;2023-04-25T09:02:12;17.90;50.10
13093;DHT22;6612;49.568;11.000;2023-04-25T09:04:43;17.90;50.00
13093;DHT22;6612;49.568;11.000;2023-04-25T09:07:12;17.90;50.10
13093;DHT22;6612;49.568;11.000;2023-04-25T09:09:41;17.90;50.50
13093;DHT22;6612;49.568;11.000;2023-04-25T09:12:08;18.10;50.70
13093;DHT22;6612;49.568;11.000;2023-04-25T09:14:36;18.20;51.10
13093;DHT22;6612;49.568;11.000;2023-04-25T09:17:04;18.50;51.20
13093;DHT22;6612;49.568;11.000;2023-04-25T09:19:34;18.60;50.30
13093;DHT22;6612;49.568;11.000;2023-04-25T09:22:02;18.90;49.70
13093;DHT22;6612;49.568;11.000;2023-04-25T09:24:33;18.90;50.00
13093;DHT22;6612;49.568;11.000;2023-04-25T09:27:03;19.00;49.70
13093;DHT22;6612;49.568;11.000;2023-04-25T09:29:31;19.00;49.50
13093;DHT22;6612;49.568;11.000;2023-04-25T09:32:19;19.20;49.20
13093;DHT22;6612;49.568;11.000;2023-04-25T09:34:47;19.20;48.90
13093;DHT22;6612;49.568;11.000;2023-04-25T09:37:19;19.30;49.10
13093;DHT22;6612;49.568;11.000;2023-04-25T09:39:49;19.40;48.80
13093;DHT22;6612;49.568;11.000;2023-04-25T09:42:16;19.50;48.90
13093;DHT22;6612;49.568;11.000;2023-04-25T09:44:44;19.70;49.20
13093;DHT22;6612;49.568;11.000;2023-04-25T09:47:12;19.80;49.00
13093;DHT22;6612;49.568;11.000;2023-04-25T09:49:41;20.00;48.70
13093;DHT22;6612;49.568;11.000;2023-04-25T09:52:10;20.20;47.20
13093;DHT22;6612;49.568;11.000;2023-04-25T09:54:39;20.20;47.20
13093;DHT22;6612;49.568;11.000;2023-04-25T09:57:11;20.30;47.10
13093;DHT22;6612;49.568;11.000;2023-04-25T09:59:42;20.40;46.50
13093;DHT22;6612;49.568;11.000;2023-04-25T10:02:11;20.90;47.60
13093;DHT22;6612;49.568;11.000;2023-04-25T10:04:38;21.00;48.30
13093;DHT22;6612;49.568;11.000;2023-04-25T10:07:07;21.40;48.80
13093;DHT22;6612;49.568;11.000;2023-04-25T10:09:37;21.70;46.80
13093;DHT22;6612;49.568;11.000;2023-04-25T10:12:05;22.00;44.60
13093;DHT22;6612;49.568;11.000;2023-04-25T10:14:35;22.00;44.00
13093;DHT22;6612;49.568;11.000;2023-04-25T10:17:02;22.00;42.30
13093;DHT22;6612;49.568;11.000;2023-04-25T10:19:29;21.80;41.70
13093;DHT22;6612;49.568;11.000;2023-04-25T10:22:03;21.70;41.60
13093;DHT22;6612;49.568;11.000;2023-04-25T10:24:31;21.70;41.40
13093;DHT22;6612;49.568;11.000;2023-04-25T10:26:58;21.70;42.50
13093;DHT22;6612;49.568;11.000;2023-04-25T10:29:27;21.80;42.60
13093;DHT22;6612;49.568;11.000;2023-04-25T10:31:57;21.80;41.60
13093;DHT22;6612;49.568;11.000;2023-04-25T10:34:25;21.90;41.40
13093;DHT22;6612;49.568;11.000;2023-04-25T10:37:04;21.90;41.10
13093;DHT22;6612;49.568;11.000;2023-04-25T10:39:32;21.90;40.70
13093;DHT22;6612;49.568;11.000;2023-04-25T10:42:02;21.80;40.00
13093;DHT22;6612;49.568;11.000;2023-04-25T10:44:30;21.70;39.60
13093;DHT22;6612;49.568;11.000;2023-04-25T10:47:00;21.60;40.00
13093;DHT22;6612;49.568;11.000;2023-04-25T10:49:30;21.50;39.00
13093;DHT22;6612;49.568;11.000;2023-04-25T10:52:25;21.40;39.50
13093;DHT22;6612;49.568;11.000;2023-04-25T10:54:53;21.40;38.70
13093;DHT22;6612;49.568;11.000;2023-04-25T10:57:30;21.40;39.60
13093;DHT22;6612;49.568;11.000;2023-04-25T11:00:10;21.30;38.60
13093;DHT22;6612;49.568;11.000;2023-04-25T11:02:40;21.20;39.10
13093;DHT22;6612;49.568;11.000;2023-04-25T11:05:09;21.10;38.70
13093;DHT22;6612;49.568;11.000;2023-04-25T11:07:41;21.00;38.60
13093;DHT22;6612;49.568;11.000;2023-04-25T11:10:11;20.90;38.30
13093;DHT22;6612;49.568;11.000;2023-04-25T11:12:38;20.70;38.40
13093;DHT22;6612;49.568;11.000;2023-04-25T11:15:06;20.60;38.30
13093;DHT22;6612;49.568;11.000;2023-04-25T11:17:34;20.50;38.40
13093;DHT22;6612;49.568;11.000;2023-04-25T11:20:03;20.30;38.50
13093;DHT22;6612;49.568;11.000;2023-04-25T11:22:34;20.20;38.40
13093;DHT22;6612;49.568;11.000;2023-04-25T11:25:05;20.10;38.70
13093;DHT22;6612;49.568;11.000;2023-04-25T11:27:33;20.10;39.00
13093;DHT22;6612;49.568;11.000;2023-04-25T11:30:10;20.10;39.40
13093;DHT22;6612;49.568;11.000;2023-04-25T11:32:39;20.10;38.80
13093;DHT22;6612;49.568;11.000;2023-04-25T11:35:08;20.10;39.30
13093;DHT22;6612;49.568;11.000;2023-04-25T11:37:35;20.30;39.60
13093;DHT22;6612;49.568;11.000;2023-04-25T11:40:04;20.30;39.90
13093;DHT22;6612;49.568;11.000;2023-04-25T11:42:32;20.50;40.10
13093;DHT22;6612;49.568;11.000;2023-04-25T11:44:59;20.60;40.30
13093;DHT22;6612;49.568;11.000;2023-04-25T11:47:30;20.70;39.90
13093;DHT22;6612;49.568;11.000;2023-04-25T11:49:58;20.80;38.80
13093;DHT22;6612;49.568;11.000;2023-04-25T11:52:37;20.90;38.60
13093;DHT22;6612;49.568;11.000;2023-04-25T11:55:06;20.90;37.20
13093;DHT22;6612;49.568;11.000;2023-04-25T11:57:33;20.90;37.70
13093;DHT22;6612;49.568;11.000;2023-04-25T12:00:11;20.80;37.30
13093;DHT22;6612;49.568;11.000;2023-04-25T12:02:43;20.70;36.60
13093;DHT22;6612;49.568;11.000;2023-04-25T12:05:10;20.70;37.00
13093;DHT22;6612;49.568;11.000;2023-04-25T12:07:39;20.60;37.40
13093;DHT22;6612;49.568;11.000;2023-04-25T12:10:07;20.50;37.40
13093;DHT22;6612;49.568;11.000;2023-04-25T12:12:36;20.50;37.50
13093;DHT22;6612;49.568;11.000;2023-04-25T12:15:14;20.50;37.60
13093;DHT22;6612;49.568;11.000;2023-04-25T12:17:45;20.50;36.90
13093;DHT22;6612;49.568;11.000;2023-04-25T12:20:14;20.60;37.90
13093;DHT22;6612;49.568;11.000;2023-04-25T12:22:43;20.60;37.70
13093;DHT22;6612;49.568;11.000;2023-04-25T12:25:12;20.70;37.50
13093;DHT22;6612;49.568;11.000;2023-04-25T12:27:40;20.70;37.50
13093;DHT22;6612;49.568;11.000;2023-04-25T12:30:08;20.70;37.10
13093;DHT22;6612;49.568;11.000;2023-04-25T12:32:36;20.70;36.60
13093;DHT22;6612;49.568;11.000;2023-04-25T12:35:04;20.60;36.50
13093;DHT22;6612;49.568;11.000;2023-04-25T12:37:32;20.60;36.40
13093;DHT22;6612;49.568;11.000;2023-04-25T12:40:00;20.50;36.30
13093;DHT22;6612;49.568;11.000;2023-04-25T12:42:28;20.40;36.00
13093;DHT22;6612;49.568;11.000;2023-04-25T12:44:55;20.30;36.20
13093;DHT22;6612;49.568;11.000;2023-04-25T12:47:22;20.20;36.30
13093;DHT22;6612;49.568;11.000;2023-04-25T12:49:49;20.10;36.30
13093;DHT22;6612;49.568;11.000;2023-04-25T12:52:17;20.10;36.60
13093;DHT22;6612;49.568;11.000;2023-04-25T12:54:44;20.10;36.80
13093;DHT22;6612;49.568;11.000;2023-04-25T12:57:12;20.10;37.00
13093;DHT22;6612;49.568;11.000;2023-04-25T12:59:39;20.00;36.80
13093;DHT22;6612;49.568;11.000;2023-04-25T13:02:06;20.10;36.60
13093;DHT22;6612;49.568;11.000;2023-04-25T13:04:33;20.10;36.70
13093;DHT22;6612;49.568;11.000;2023-04-25T13:07:00;20.00;36.50
13093;DHT22;6612;49.568;11.000;2023-04-25T13:09:27;20.10;36.90
13093;DHT22;6612;49.568;11.000;2023-04-25T13:11:54;20.10;37.10
13093;DHT22;6612;49.568;11.000;2023-04-25T13:14:22;20.10;36.90
13093;DHT22;6612;49.568;11.000;2023-04-25T13:16:49;20.10;36.50
13093;DHT22;6612;49.568;11.000;2023-04-25T13:19:16;20.10;36.30
13093;DHT22;6612;49.568;11.000;2023-04-25T13:21:43;20.10;36.20
13093;DHT22;6612;49.568;11.000;2023-04-25T13:24:10;20.00;36.20
13093;DHT22;6612;49.568;11.000;2023-04-25T13:26:37;20.00;36.40
13093;DHT22;6612;49.568;11.000;2023-04-25T13:29:05;20.00;36.40
13093;DHT22;6612;49.568;11.000;2023-04-25T13:31:33;19.90;36.40
13093;DHT22;6612;49.568;11.000;2023-04-25T13:34:00;19.90;36.80
13093;DHT22;6612;49.568;11.000;2023-04-25T13:36:27;19.90;36.30
13093;DHT22;6612;49.568;11.000;2023-04-25T13:38:54;19.80;36.20
13093;DHT22;6612;49.568;11.000;2023-04-25T13:41:21;19.80;36.00
13093;DHT22;6612;49.568;11.000;2023-04-25T13:43:48;19.80;36.30
13093;DHT22;6612;49.568;11.000;2023-04-25T13:46:16;19.80;36.20
13093;DHT22;6612;49.568;11.000;2023-04-25T13:48:44;19.80;36.30
13093;DHT22;6612;49.568;11.000;2023-04-25T13:51:15;19.70;36.20
13093;DHT22;6612;49.568;11.000;2023-04-25T13:53:43;19.70;36.40
13093;DHT22;6612;49.568;11.000;2023-04-25T13:56:11;19.70;36.40
13093;DHT22;6612;49.568;11.000;2023-04-25T13:58:38;19.70;36.20
13093;DHT22;6612;49.568;11.000;2023-04-25T14:01:05;19.70;36.00
13093;DHT22;6612;49.568;11.000;2023-04-25T14:03:33;19.70;36.00
13093;DHT22;6612;49.568;11.000;2023-04-25T14:06:01;19.60;35.80
13093;DHT22;6612;49.568;11.000;2023-04-25T14:08:28;19.60;35.60
13093;DHT22;6612;49.568;11.000;2023-04-25T14:10:55;19.50;35.50
13093;DHT22;6612;49.568;11.000;2023-04-25T14:13:22;19.30;35.20
13093;DHT22;6612;49.568;11.000;2023-04-25T14:15:50;19.20;35.20
13093;DHT22;6612;49.568;11.000;2023-04-25T14:18:17;19.10;35.30
13093;DHT22;6612;49.568;11.000;2023-04-25T14:20:44;18.90;35.40
13093;DHT22;6612;49.568;11.000;2023-04-25T14:23:13;18.80;35.50
13093;DHT22;6612;49.568;11.000;2023-04-25T14:25:40;18.70;35.80
13093;DHT22;6612;49.568;11.000;2023-04-25T14:28:09;18.60;36.00
13093;DHT22;6612;49.568;11.000;2023-04-25T14:30:36;18.50;36.20
13093;DHT22;6612;49.568;11.000;2023-04-25T14:33:03;18.50;36.60
13093;DHT22;6612;49.568;11.000;2023-04-25T14:35:30;18.40;36.70
13093;DHT22;6612;49.568;11.000;2023-04-25T14:37:57;18.40;36.80
13093;DHT22;6612;49.568;11.000;2023-04-25T14:40:26;18.30;36.80
13093;DHT22;6612;49.568;11.000;2023-04-25T14:42:54;18.30;36.70
13093;DHT22;6612;49.568;11.000;2023-04-25T14:45:21;18.30;36.70
13093;DHT22;6612;49.568;11.000;2023-04-25T14:47:48;18.30;36.80
13093;DHT22;6612;49.568;11.000;2023-04-25T14:50:15;18.30;36.70
13093;DHT22;6612;49.568;11.000;2023-04-25T14:52:42;18.30;36.70
13093;DHT22;6612;49.568;11.000;2023-04-25T14:55:10;18.20;36.70
13093;DHT22;6612;49.568;11.000;2023-04-25T14:57:39;18.20;36.80
13093;DHT22;6612;49.568;11.000;2023-04-25T15:00:07;18.20;37.00
13093;DHT22;6612;49.568;11.000;2023-04-25T15:02:35;18.20;37.00
13093;DHT22;6612;49.568;11.000;2023-04-25T15:05:02;18.20;37.10
13093;DHT22;6612;49.568;11.000;2023-04-25T15:07:29;18.20;37.10
13093;DHT22;6612;49.568;11.000;2023-04-25T15:09:57;18.20;37.20
13093;DHT22;6612;49.568;11.000;2023-04-25T15:12:24;18.20;37.20
13093;DHT22;6612;49.568;11.000;2023-04-25T15:14:55;18.20;37.10
13093;DHT22;6612;49.568;11.000;2023-04-25T15:17:22;18.20;37.20
13093;DHT22;6612;49.568;11.000;2023-04-25T15:19:49;18.20;37.10
13093;DHT22;6612;49.568;11.000;2023-04-25T15:22:16;18.10;36.90
13093;DHT22;6612;49.568;11.000;2023-04-25T15:24:43;18.10;36.90
13093;DHT22;6612;49.568;11.000;2023-04-25T15:27:10;18.10;36.90
13093;DHT22;6612;49.568;11.000;2023-04-25T15:29:37;18.10;37.10
13093;DHT22;6612;49.568;11.000;2023-04-25T15:32:07;18.00;36.60
13093;DHT22;6612;49.568;11.000;2023-04-25T15:34:34;18.00;37.00